Time,TemperatureF,DewpointF,PressureIn,WindDirection,WindDirectionDegrees,WindSpeedMPH,WindSpeedGustMPH,Humidity,HourlyPrecipIn,Conditions,Clouds,dailyrainin,SoftwareType,DateUTC
2013-02-28 00:01:00,38.8,35.6,29.64,ESE,113,5.0,8.0,88,0.00,,,0.87,Wunderground v.1.15,2013-02-28 05:01:00,
2013-02-28 00:06:00,38.8,35.8,29.64,ESE,112,6.0,6.0,89,0.00,,,0.87,Wunderground v.1.15,2013-02-28 05:06:00,
2013-02-28 00:11:00,38.8,35.8,29.63,ESE,112,5.0,15.0,89,0.00,,,0.87,Wunderground v.1.15,2013-02-28 05:11:00,
2013-02-28 00:16:00,38.6,35.4,29.63,ESE,112,4.0,15.0,88,0.00,,,0.87,Wunderground v.1.15,2013-02-28 05:16:00,
2013-02-28 00:26:00,37.8,34.8,29.63,ESE,113,4.0,15.0,89,0.00,,,0.87,Wunderground v.1.15,2013-02-28 05:26:00,
2013-02-28 00:31:00,37.5,34.6,29.63,ESE,113,3.0,15.0,89,0.00,,,0.87,Wunderground v.1.15,2013-02-28 05:31:00,
2013-02-28 00:36:00,37.3,34.4,29.63,ESE,113,1.0,1.0,89,0.00,,,0.87,Wunderground v.1.15,2013-02-28 05:36:00,
2013-02-28 00:41:00,37.2,34.3,29.63,ESE,113,0.0,15.0,89,0.00,,,0.87,Wunderground v.1.15,2013-02-28 05:41:00,
2013-02-28 00:46:00,37.2,34.5,29.64,ESE,112,1.0,15.0,90,0.00,,,0.87,Wunderground v.1.15,2013-02-28 05:46:00,
2013-02-28 00:56:00,38.1,35.4,29.63,ESE,102,3.0,3.0,90,0.00,,,0.87,Wunderground v.1.15,2013-02-28 05:56:00,
2013-02-28 01:01:00,38.2,35.5,29.63,ESE,102,2.0,15.0,90,0.00,,,0.87,Wunderground v.1.15,2013-02-28 06:01:00,
2013-02-28 01:06:00,38.1,35.4,29.63,ESE,102,0.0,15.0,90,0.00,,,0.87,Wunderground v.1.15,2013-02-28 06:06:00,
2013-02-28 01:11:00,37.9,34.9,29.63,ESE,102,0.0,15.0,89,0.00,,,0.87,Wunderground v.1.15,2013-02-28 06:11:00,
2013-02-28 01:16:00,37.5,34.6,29.64,ESE,102,0.0,15.0,89,0.00,,,0.87,Wunderground v.1.15,2013-02-28 06:16:00,
2013-02-28 01:26:00,36.9,34.0,29.64,ESE,102,0.0,15.0,89,0.00,,,0.87,Wunderground v.1.15,2013-02-28 06:26:00,
2013-02-28 01:31:00,36.7,34.0,29.63,ESE,102,0.0,15.0,90,0.00,,,0.87,Wunderground v.1.15,2013-02-28 06:31:00,
2013-02-28 01:36:00,36.6,33.9,29.63,ESE,102,0.0,15.0,90,0.00,,,0.87,Wunderground v.1.15,2013-02-28 06:36:00,
2013-02-28 01:41:00,36.5,33.8,29.63,ESE,102,0.0,15.0,90,0.00,,,0.87,Wunderground v.1.15,2013-02-28 06:41:00,
2013-02-28 01:46:00,36.5,34.1,29.63,ESE,102,0.0,15.0,91,0.00,,,0.87,Wunderground v.1.15,2013-02-28 06:46:00,
2013-02-28 01:56:00,36.8,34.4,29.63,ESE,102,0.0,15.0,91,0.00,,,0.87,Wunderground v.1.15,2013-02-28 06:56:00,
2013-02-28 02:01:00,37.0,34.6,29.63,ESE,102,0.0,15.0,91,0.00,,,0.87,Wunderground v.1.15,2013-02-28 07:01:00,
2013-02-28 02:06:00,37.2,34.8,29.63,ESE,102,0.0,15.0,91,0.00,,,0.87,Wunderground v.1.15,2013-02-28 07:06:00,
2013-02-28 02:11:00,37.4,35.3,29.63,ESE,102,0.0,15.0,92,0.00,,,0.87,Wunderground v.1.15,2013-02-28 07:11:00,
2013-02-28 02:21:00,37.6,35.2,29.64,ESE,102,0.0,15.0,91,0.00,,,0.87,Wunderground v.1.15,2013-02-28 07:21:00,
2013-02-28 02:26:00,37.7,35.3,29.63,ESE,102,0.0,15.0,91,0.00,,,0.87,Wunderground v.1.15,2013-02-28 07:26:00,
2013-02-28 02:31:00,37.6,35.2,29.63,ESE,102,0.0,15.0,91,0.00,,,0.87,Wunderground v.1.15,2013-02-28 07:31:00,
2013-02-28 02:36:00,37.6,35.2,29.63,ESE,102,0.0,15.0,91,0.00,,,0.87,Wunderground v.1.15,2013-02-28 07:36:00,
2013-02-28 02:41:00,37.5,35.1,29.63,ESE,102,0.0,15.0,91,0.00,,,0.87,Wunderground v.1.15,2013-02-28 07:41:00,
2013-02-28 02:46:00,37.3,34.9,29.63,ESE,102,0.0,15.0,91,0.00,,,0.87,Wunderground v.1.15,2013-02-28 07:46:00,
2013-02-28 02:51:00,37.2,34.8,29.63,ESE,102,0.0,15.0,91,0.00,,,0.87,Wunderground v.1.15,2013-02-28 07:51:00,
2013-02-28 02:56:00,37.1,34.7,29.63,ESE,102,0.0,15.0,91,0.00,,,0.87,Wunderground v.1.15,2013-02-28 07:56:00,
2013-02-28 03:06:00,37.0,34.9,29.62,ESE,102,0.0,15.0,92,0.00,,,0.87,Wunderground v.1.15,2013-02-28 08:06:00,
2013-02-28 03:11:00,36.9,34.8,29.63,ESE,102,0.0,15.0,92,0.00,,,0.87,Wunderground v.1.15,2013-02-28 08:11:00,
2013-02-28 03:16:00,36.9,34.8,29.63,ESE,102,0.0,15.0,92,0.00,,,0.87,Wunderground v.1.15,2013-02-28 08:16:00,
2013-02-28 03:21:00,36.9,34.8,29.63,ESE,102,0.0,15.0,92,0.00,,,0.87,Wunderground v.1.15,2013-02-28 08:21:00,
2013-02-28 03:31:00,36.9,34.8,29.64,ESE,102,0.0,15.0,92,0.00,,,0.00,Wunderground v.1.15,2013-02-28 08:31:00,
2013-02-28 03:36:00,37.0,35.2,29.63,ESE,102,0.0,15.0,93,0.00,,,0.00,Wunderground v.1.15,2013-02-28 08:36:00,
2013-02-28 03:46:00,37.0,35.2,29.63,ESE,102,0.0,15.0,93,0.00,,,0.00,Wunderground v.1.15,2013-02-28 08:46:00,
2013-02-28 03:51:00,36.9,35.1,29.63,ESE,102,0.0,15.0,93,0.00,,,0.00,Wunderground v.1.15,2013-02-28 08:51:00,
2013-02-28 03:56:00,36.8,35.0,29.63,ESE,102,0.0,15.0,93,0.00,,,0.00,Wunderground v.1.15,2013-02-28 08:56:00,
2013-02-28 04:01:00,36.7,34.9,29.63,ESE,102,0.0,15.0,93,0.00,,,0.00,Wunderground v.1.15,2013-02-28 09:01:00,
2013-02-28 04:11:00,36.5,34.7,29.64,ESE,102,0.0,15.0,93,0.00,,,0.00,Wunderground v.1.15,2013-02-28 09:11:00,
2013-02-28 04:16:00,36.5,34.7,29.63,ESE,102,0.0,15.0,93,0.00,,,0.00,Wunderground v.1.15,2013-02-28 09:16:00,
2013-02-28 04:21:00,36.4,34.6,29.63,ESE,102,0.0,15.0,93,0.00,,,0.00,Wunderground v.1.15,2013-02-28 09:21:00,
2013-02-28 04:26:00,36.4,34.6,29.64,ESE,102,0.0,15.0,93,0.00,,,0.00,Wunderground v.1.15,2013-02-28 09:26:00,
2013-02-28 04:31:00,36.4,34.6,29.64,ESE,102,0.0,15.0,93,0.00,,,0.00,Wunderground v.1.15,2013-02-28 09:31:00,
2013-02-28 04:36:00,36.3,34.5,29.63,ESE,102,0.0,15.0,93,0.00,,,0.00,Wunderground v.1.15,2013-02-28 09:36:00,
2013-02-28 04:46:00,36.2,34.4,29.63,ESE,102,0.0,15.0,93,0.00,,,0.00,Wunderground v.1.15,2013-02-28 09:46:00,
2013-02-28 04:51:00,36.2,34.4,29.63,ESE,102,0.0,15.0,93,0.00,,,0.00,Wunderground v.1.15,2013-02-28 09:51:00,
2013-02-28 04:56:00,36.2,34.4,29.63,ESE,102,0.0,15.0,93,0.00,,,0.00,Wunderground v.1.15,2013-02-28 09:56:00,
2013-02-28 05:06:00,36.3,34.5,29.63,ESE,102,0.0,15.0,93,0.00,,,0.00,Wunderground v.1.15,2013-02-28 10:06:00,
2013-02-28 05:11:00,36.3,34.5,29.63,ESE,102,0.0,15.0,93,0.00,,,0.00,Wunderground v.1.15,2013-02-28 10:11:00,
2013-02-28 05:16:00,36.3,34.5,29.63,ESE,102,0.0,15.0,93,0.00,,,0.00,Wunderground v.1.15,2013-02-28 10:16:00,
2013-02-28 05:21:00,36.4,34.6,29.63,ESE,102,0.0,15.0,93,0.00,,,0.00,Wunderground v.1.15,2013-02-28 10:21:00,
2013-02-28 05:26:00,36.4,34.6,29.62,ESE,102,0.0,15.0,93,0.00,,,0.00,Wunderground v.1.15,2013-02-28 10:26:00,
2013-02-28 05:36:00,36.5,34.9,29.63,ESE,102,0.0,15.0,94,0.00,,,0.00,Wunderground v.1.15,2013-02-28 10:36:00,
2013-02-28 05:41:00,36.6,35.0,29.62,ESE,102,0.0,15.0,94,0.00,,,0.00,Wunderground v.1.15,2013-02-28 10:41:00,
2013-02-28 05:46:00,36.8,35.2,29.62,ESE,102,0.0,15.0,94,0.00,,,0.00,Wunderground v.1.15,2013-02-28 10:46:00,
2013-02-28 05:51:00,36.8,35.2,29.63,ESE,102,0.0,15.0,94,0.00,,,0.00,Wunderground v.1.15,2013-02-28 10:51:00,
2013-02-28 05:56:00,36.8,35.2,29.62,ESE,102,0.0,0.0,94,0.00,,,0.00,Wunderground v.1.15,2013-02-28 10:56:00,
2013-02-28 06:06:00,36.8,35.2,29.63,ESE,102,0.0,0.0,94,0.00,,,0.00,Wunderground v.1.15,2013-02-28 11:06:00,
2013-02-28 06:11:00,36.9,35.3,29.62,ESE,102,0.0,0.0,94,0.00,,,0.00,Wunderground v.1.15,2013-02-28 11:11:00,
2013-02-28 06:16:00,37.0,35.4,29.63,ESE,102,0.0,0.0,94,0.00,,,0.00,Wunderground v.1.15,2013-02-28 11:16:00,
2013-02-28 06:21:00,37.0,35.4,29.63,ESE,102,0.0,0.0,94,0.00,,,0.00,Wunderground v.1.15,2013-02-28 11:21:00,
2013-02-28 06:26:00,37.0,35.4,29.63,ESE,102,0.0,0.0,94,0.00,,,0.00,Wunderground v.1.15,2013-02-28 11:26:00,
2013-02-28 06:31:00,37.0,35.4,29.63,ESE,102,0.0,0.0,94,0.00,,,0.00,Wunderground v.1.15,2013-02-28 11:31:00,
2013-02-28 06:41:00,37.2,35.6,29.63,ESE,102,0.0,0.0,94,0.00,,,0.00,Wunderground v.1.15,2013-02-28 11:41:00,
2013-02-28 06:46:00,37.4,35.8,29.63,ESE,102,0.0,0.0,94,0.00,,,0.00,Wunderground v.1.15,2013-02-28 11:46:00,
2013-02-28 06:51:00,37.5,35.9,29.64,ESE,102,0.0,0.0,94,0.00,,,0.00,Wunderground v.1.15,2013-02-28 11:51:00,
2013-02-28 07:01:00,37.5,35.9,29.64,ESE,102,0.0,0.0,94,0.00,,,0.01,Wunderground v.1.15,2013-02-28 12:01:00,
2013-02-28 07:06:00,37.6,36.0,29.64,ESE,102,0.0,0.0,94,0.00,,,0.01,Wunderground v.1.15,2013-02-28 12:06:00,
2013-02-28 07:11:00,37.7,36.1,29.64,ESE,102,0.0,0.0,94,0.00,,,0.01,Wunderground v.1.15,2013-02-28 12:11:00,
2013-02-28 07:16:00,37.8,36.2,29.64,ESE,102,0.0,0.0,94,0.00,,,0.01,Wunderground v.1.15,2013-02-28 12:16:00,
2013-02-28 07:26:00,38.0,36.4,29.64,ESE,102,0.0,0.0,94,0.00,,,0.02,Wunderground v.1.15,2013-02-28 12:26:00,
2013-02-28 07:31:00,38.2,36.6,29.64,ESE,102,0.0,0.0,94,0.00,,,0.02,Wunderground v.1.15,2013-02-28 12:31:00,
2013-02-28 07:36:00,38.4,36.8,29.64,ESE,102,0.0,0.0,94,0.00,,,0.02,Wunderground v.1.15,2013-02-28 12:36:00,
2013-02-28 07:41:00,38.7,37.1,29.64,ESE,102,0.0,0.0,94,0.00,,,0.02,Wunderground v.1.15,2013-02-28 12:41:00,
2013-02-28 07:46:00,38.8,37.5,29.64,ESE,102,0.0,0.0,95,0.00,,,0.02,Wunderground v.1.15,2013-02-28 12:46:00,
2013-02-28 07:56:00,39.1,37.5,29.64,ESE,102,0.0,0.0,94,0.00,,,0.02,Wunderground v.1.15,2013-02-28 12:56:00,
2013-02-28 08:01:00,39.3,37.7,29.64,ESE,102,0.0,0.0,94,0.00,,,0.02,Wunderground v.1.15,2013-02-28 13:01:00,
2013-02-28 08:06:00,39.6,38.3,29.64,ESE,102,0.0,0.0,95,0.00,,,0.02,Wunderground v.1.15,2013-02-28 13:06:00,
2013-02-28 08:16:00,40.2,38.9,29.64,ESE,102,0.0,0.0,95,0.00,,,0.02,Wunderground v.1.15,2013-02-28 13:16:00,
2013-02-28 08:21:00,40.6,39.3,29.63,ESE,102,0.0,0.0,95,0.00,,,0.02,Wunderground v.1.15,2013-02-28 13:21:00,
2013-02-28 08:26:00,41.0,39.7,29.63,ESE,102,0.0,1.0,95,0.00,,,0.02,Wunderground v.1.15,2013-02-28 13:26:00,
2013-02-28 08:31:00,41.2,39.9,29.63,ESE,102,0.0,1.0,95,0.00,,,0.02,Wunderground v.1.15,2013-02-28 13:31:00,
2013-02-28 08:36:00,41.3,40.0,29.63,ESE,102,0.0,0.0,95,0.00,,,0.02,Wunderground v.1.15,2013-02-28 13:36:00,
2013-02-28 08:46:00,41.8,40.5,29.63,ESE,102,0.0,0.0,95,0.00,,,0.02,Wunderground v.1.15,2013-02-28 13:46:00,
2013-02-28 08:51:00,42.2,40.9,29.63,ESE,102,0.0,0.0,95,0.00,,,0.02,Wunderground v.1.15,2013-02-28 13:51:00,
2013-02-28 08:56:00,42.5,41.2,29.63,ESE,102,0.0,0.0,95,0.00,,,0.02,Wunderground v.1.15,2013-02-28 13:56:00,
2013-02-28 09:01:00,42.9,41.6,29.63,ESE,102,0.0,0.0,95,0.00,,,0.02,Wunderground v.1.15,2013-02-28 14:01:00,
2013-02-28 09:11:00,43.5,41.9,29.63,ESE,102,0.0,0.0,94,0.00,,,0.02,Wunderground v.1.15,2013-02-28 14:11:00,
2013-02-28 09:21:00,43.7,41.8,29.63,ESE,102,0.0,0.0,93,0.00,,,0.02,Wunderground v.1.15,2013-02-28 14:21:00,
2013-02-28 09:26:00,43.6,41.7,29.63,ESE,102,0.0,0.0,93,0.00,,,0.02,Wunderground v.1.15,2013-02-28 14:26:00,
2013-02-28 09:31:00,43.6,41.4,29.63,ESE,102,0.0,0.0,92,0.00,,,0.02,Wunderground v.1.15,2013-02-28 14:31:00,
2013-02-28 09:41:00,43.7,41.8,29.62,East,99,0.0,0.0,93,0.00,,,0.03,Wunderground v.1.15,2013-02-28 14:41:00,
2013-02-28 09:46:00,43.9,42.0,29.62,East,99,0.0,0.0,93,0.00,,,0.03,Wunderground v.1.15,2013-02-28 14:46:00,
2013-02-28 09:51:00,44.2,42.3,29.62,East,99,0.0,0.0,93,0.00,,,0.03,Wunderground v.1.15,2013-02-28 14:51:00,
2013-02-28 09:56:00,44.4,42.5,29.62,East,99,0.0,0.0,93,0.00,,,0.03,Wunderground v.1.15,2013-02-28 14:56:00,
2013-02-28 10:01:00,44.8,42.9,29.61,East,99,0.0,0.0,93,0.00,,,0.03,Wunderground v.1.15,2013-02-28 15:01:00,
2013-02-28 10:11:00,45.3,43.1,29.61,East,99,0.0,0.0,92,0.00,,,0.03,Wunderground v.1.15,2013-02-28 15:11:00,
2013-02-28 10:16:00,45.6,43.1,29.62,East,99,0.0,0.0,91,0.00,,,0.03,Wunderground v.1.15,2013-02-28 15:16:00,
2013-02-28 10:21:00,45.8,43.0,29.61,East,99,0.0,0.0,90,0.00,,,0.03,Wunderground v.1.15,2013-02-28 15:21:00,
2013-02-28 10:31:00,46.1,42.1,29.62,WSW,239,2.0,4.0,86,0.00,,,0.03,Wunderground v.1.15,2013-02-28 15:31:00,
2013-02-28 10:36:00,46.3,42.6,29.62,WSW,238,2.0,2.0,87,0.00,,,0.03,Wunderground v.1.15,2013-02-28 15:36:00,
2013-02-28 10:41:00,46.4,42.4,29.62,WSW,238,1.0,2.0,86,0.00,,,0.03,Wunderground v.1.15,2013-02-28 15:41:00,
2013-02-28 10:46:00,46.5,42.5,29.61,WSW,238,1.0,1.0,86,0.00,,,0.03,Wunderground v.1.15,2013-02-28 15:46:00,
2013-02-28 10:56:00,46.3,42.0,29.61,West,273,2.0,4.0,85,0.00,,,0.03,Wunderground v.1.15,2013-02-28 15:56:00,
2013-02-28 11:06:00,45.6,41.7,29.61,WNW,283,3.0,5.0,86,0.00,,,0.03,Wunderground v.1.15,2013-02-28 16:06:00,
2013-02-28 11:11:00,45.6,42.0,29.61,WNW,286,3.0,5.0,87,0.00,,,0.03,Wunderground v.1.15,2013-02-28 16:11:00,
2013-02-28 11:16:00,45.5,41.6,29.61,WNW,286,2.0,2.0,86,0.00,,,0.03,Wunderground v.1.15,2013-02-28 16:16:00,
2013-02-28 11:21:00,45.6,42.0,29.61,WNW,286,1.0,2.0,87,0.00,,,0.03,Wunderground v.1.15,2013-02-28 16:21:00,
2013-02-28 11:31:00,45.6,41.7,29.60,WNW,286,0.0,1.0,86,0.00,,,0.03,Wunderground v.1.15,2013-02-28 16:31:00,
2013-02-28 11:36:00,45.8,42.2,29.60,WNW,286,0.0,1.0,87,0.00,,,0.03,Wunderground v.1.15,2013-02-28 16:36:00,
2013-02-28 11:41:00,45.9,41.9,29.60,WNW,286,0.0,1.0,86,0.00,,,0.03,Wunderground v.1.15,2013-02-28 16:41:00,
2013-02-28 11:46:00,46.0,41.7,29.60,WNW,286,1.0,1.0,85,0.00,,,0.03,Wunderground v.1.15,2013-02-28 16:46:00,
2013-02-28 11:57:00,46.2,41.9,29.59,West,281,0.0,6.0,85,0.00,,,0.03,Wunderground v.1.15,2013-02-28 16:57:00,
2013-02-28 12:06:00,46.6,42.6,29.58,West,281,1.0,1.0,86,0.00,,,0.03,Wunderground v.1.15,2013-02-28 17:06:00,
2013-02-28 12:16:00,46.9,42.6,29.58,West,280,0.0,6.0,85,0.00,,,0.03,Wunderground v.1.15,2013-02-28 17:16:00,
2013-02-28 12:21:00,46.8,42.5,29.58,West,280,0.0,6.0,85,0.00,,,0.03,Wunderground v.1.15,2013-02-28 17:21:00,
2013-02-28 12:26:00,46.7,42.1,29.58,West,281,1.0,1.0,84,0.00,,,0.03,Wunderground v.1.15,2013-02-28 17:26:00,
2013-02-28 12:31:00,46.6,41.4,29.58,West,279,1.0,6.0,82,0.00,,,0.03,Wunderground v.1.15,2013-02-28 17:31:00,
2013-02-28 12:41:00,46.5,40.7,29.57,WNW,284,2.0,4.0,80,0.00,,,0.03,Wunderground v.1.15,2013-02-28 17:41:00,
2013-02-28 12:46:00,46.4,40.6,29.57,WNW,284,2.0,2.0,80,0.00,,,0.03,Wunderground v.1.15,2013-02-28 17:46:00,
2013-02-28 12:56:00,46.5,41.0,29.57,WNW,291,1.0,6.0,81,0.00,,,0.03,Wunderground v.1.15,2013-02-28 17:56:00,
2013-02-28 13:06:00,45.8,40.6,29.56,WNW,291,1.0,1.0,82,0.00,,,0.03,Wunderground v.1.15,2013-02-28 18:06:00,
2013-02-28 13:11:00,45.6,40.7,29.57,WNW,291,0.0,6.0,83,0.00,,,0.03,Wunderground v.1.15,2013-02-28 18:11:00,
2013-02-28 13:21:00,45.3,40.7,29.56,WNW,291,0.0,6.0,84,0.00,,,0.03,Wunderground v.1.15,2013-02-28 18:21:00,
2013-02-28 13:26:00,45.3,40.7,29.56,WNW,291,0.0,6.0,84,0.00,,,0.03,Wunderground v.1.15,2013-02-28 18:26:00,
2013-02-28 13:36:00,45.0,40.5,29.56,WNW,291,0.0,6.0,84,0.00,,,0.03,Wunderground v.1.15,2013-02-28 18:36:00,
2013-02-28 13:41:00,45.0,40.5,29.57,WNW,291,0.0,6.0,84,0.00,,,0.03,Wunderground v.1.15,2013-02-28 18:41:00,
2013-02-28 13:46:00,45.2,41.0,29.57,WNW,291,0.0,6.0,85,0.00,,,0.03,Wunderground v.1.15,2013-02-28 18:46:00,
2013-02-28 13:51:00,45.3,41.1,29.57,WNW,291,0.0,6.0,85,0.00,,,0.03,Wunderground v.1.15,2013-02-28 18:51:00,
2013-02-28 13:56:00,45.2,40.7,29.57,WNW,291,0.0,6.0,84,0.00,,,0.03,Wunderground v.1.15,2013-02-28 18:56:00,
2013-02-28 14:01:00,45.2,40.7,29.57,WNW,291,0.0,6.0,84,0.00,,,0.03,Wunderground v.1.15,2013-02-28 19:01:00,
2013-02-28 14:06:00,45.2,40.7,29.57,WNW,291,0.0,6.0,84,0.00,,,0.03,Wunderground v.1.15,2013-02-28 19:06:00,
2013-02-28 14:16:00,45.1,40.6,29.57,WNW,291,0.0,6.0,84,0.00,,,0.03,Wunderground v.1.15,2013-02-28 19:16:00,
2013-02-28 14:21:00,45.1,40.9,29.57,WNW,291,0.0,6.0,85,0.00,,,0.03,Wunderground v.1.15,2013-02-28 19:21:00,
2013-02-28 14:26:00,45.1,40.9,29.57,WNW,291,0.0,6.0,85,0.00,,,0.03,Wunderground v.1.15,2013-02-28 19:26:00,
2013-02-28 14:31:00,45.0,41.1,29.56,WNW,291,0.0,6.0,86,0.00,,,0.03,Wunderground v.1.15,2013-02-28 19:31:00,
2013-02-28 14:41:00,44.9,41.3,29.56,WNW,290,0.0,6.0,87,0.00,,,0.03,Wunderground v.1.15,2013-02-28 19:41:00,
2013-02-28 14:46:00,44.9,41.3,29.56,WNW,290,0.0,6.0,87,0.00,,,0.03,Wunderground v.1.15,2013-02-28 19:46:00,
2013-02-28 14:56:00,44.7,41.1,29.56,WNW,290,1.0,1.0,87,0.00,,,0.03,Wunderground v.1.15,2013-02-28 19:56:00,
2013-02-28 15:01:00,44.7,41.1,29.56,WNW,290,1.0,6.0,87,0.00,,,0.03,Wunderground v.1.15,2013-02-28 20:01:00,
2013-02-28 15:11:00,44.7,41.1,29.56,WNW,290,1.0,6.0,87,0.00,,,0.03,Wunderground v.1.15,2013-02-28 20:11:00,
2013-02-28 15:21:00,44.7,41.1,29.56,WNW,290,0.0,6.0,87,0.00,,,0.03,Wunderground v.1.15,2013-02-28 20:21:00,
2013-02-28 15:26:00,44.7,41.1,29.56,WNW,290,0.0,6.0,87,0.00,,,0.03,Wunderground v.1.15,2013-02-28 20:26:00,
2013-02-28 15:31:00,44.8,41.5,29.55,WNW,290,0.0,6.0,88,0.00,,,0.03,Wunderground v.1.15,2013-02-28 20:31:00,
2013-02-28 15:41:00,44.7,41.4,29.55,WNW,290,1.0,5.0,88,0.00,,,0.03,Wunderground v.1.15,2013-02-28 20:41:00,
2013-02-28 15:46:00,44.5,41.2,29.56,WNW,290,1.0,1.0,88,0.00,,,0.03,Wunderground v.1.15,2013-02-28 20:46:00,
2013-02-28 15:51:00,44.4,41.1,29.55,WNW,287,2.0,2.0,88,0.00,,,0.03,Wunderground v.1.15,2013-02-28 20:51:00,
2013-02-28 16:01:00,44.2,40.6,29.55,WNW,287,2.0,6.0,87,0.00,,,0.03,Wunderground v.1.15,2013-02-28 21:01:00,
2013-02-28 16:06:00,44.1,40.8,29.55,WNW,287,1.0,1.0,88,0.00,,,0.03,Wunderground v.1.15,2013-02-28 21:06:00,
2013-02-28 16:11:00,44.1,41.1,29.55,WNW,287,0.0,6.0,89,0.00,,,0.03,Wunderground v.1.15,2013-02-28 21:11:00,
2013-02-28 16:21:00,43.8,40.8,29.55,WNW,286,2.0,6.0,89,0.00,,,0.03,Wunderground v.1.15,2013-02-28 21:21:00,
2013-02-28 16:26:00,43.6,40.6,29.55,WNW,286,1.0,1.0,89,0.00,,,0.03,Wunderground v.1.15,2013-02-28 21:26:00,
2013-02-28 16:31:00,43.4,40.4,29.55,WNW,286,0.0,6.0,89,0.00,,,0.03,Wunderground v.1.15,2013-02-28 21:31:00,
2013-02-28 16:41:00,43.0,40.3,29.55,West,276,2.0,2.0,90,0.00,,,0.03,Wunderground v.1.15,2013-02-28 21:41:00,
2013-02-28 16:46:00,43.0,40.3,29.55,West,276,1.0,1.0,90,0.00,,,0.03,Wunderground v.1.15,2013-02-28 21:46:00,
2013-02-28 16:56:00,42.9,40.2,29.55,West,276,0.0,6.0,90,0.00,,,0.03,Wunderground v.1.15,2013-02-28 21:56:00,
2013-02-28 17:01:00,42.8,40.4,29.55,West,276,0.0,6.0,91,0.00,,,0.03,Wunderground v.1.15,2013-02-28 22:01:00,
2013-02-28 17:11:00,42.6,40.2,29.54,West,276,0.0,6.0,91,0.00,,,0.03,Wunderground v.1.15,2013-02-28 22:11:00,
2013-02-28 17:16:00,42.5,40.1,29.55,West,276,0.0,6.0,91,0.00,,,0.03,Wunderground v.1.15,2013-02-28 22:16:00,
2013-02-28 17:21:00,42.4,40.0,29.55,West,276,0.0,6.0,91,0.00,,,0.03,Wunderground v.1.15,2013-02-28 22:21:00,
2013-02-28 17:31:00,42.3,39.9,29.55,West,276,0.0,6.0,91,0.00,,,0.03,Wunderground v.1.15,2013-02-28 22:31:00,
2013-02-28 17:36:00,42.2,39.8,29.55,West,276,0.0,6.0,91,0.00,,,0.03,Wunderground v.1.15,2013-02-28 22:36:00,
2013-02-28 17:41:00,42.1,39.7,29.55,West,276,0.0,6.0,91,0.00,,,0.03,Wunderground v.1.15,2013-02-28 22:41:00,
2013-02-28 17:46:00,42.0,39.6,29.55,West,276,1.0,1.0,91,0.00,,,0.03,Wunderground v.1.15,2013-02-28 22:46:00,
2013-02-28 17:56:00,42.0,39.6,29.55,West,276,0.0,2.0,91,0.00,,,0.03,Wunderground v.1.15,2013-02-28 22:56:00,
2013-02-28 18:06:00,41.9,39.5,29.56,West,276,0.0,2.0,91,0.00,,,0.03,Wunderground v.1.15,2013-02-28 23:06:00,
2013-02-28 18:11:00,41.8,39.4,29.56,West,276,0.0,2.0,91,0.00,,,0.03,Wunderground v.1.15,2013-02-28 23:11:00,
2013-02-28 18:21:00,41.8,39.4,29.56,West,276,0.0,2.0,91,0.00,,,0.03,Wunderground v.1.15,2013-02-28 23:21:00,
2013-02-28 18:26:00,41.6,39.2,29.56,West,276,0.0,2.0,91,0.00,,,0.03,Wunderground v.1.15,2013-02-28 23:26:00,
2013-02-28 18:31:00,41.4,39.0,29.56,West,276,0.0,2.0,91,0.00,,,0.03,Wunderground v.1.15,2013-02-28 23:31:00,
2013-02-28 18:36:00,41.3,38.9,29.56,West,276,0.0,2.0,91,0.00,,,0.03,Wunderground v.1.15,2013-02-28 23:36:00,
2013-02-28 18:41:00,41.1,38.7,29.56,West,276,0.0,2.0,91,0.00,,,0.03,Wunderground v.1.15,2013-02-28 23:41:00,
2013-02-28 18:51:00,40.6,38.2,29.56,West,276,0.0,2.0,91,0.00,,,0.03,Wunderground v.1.15,2013-02-28 23:51:00,
2013-02-28 18:56:00,40.5,38.1,29.56,West,276,0.0,2.0,91,0.00,,,0.03,Wunderground v.1.15,2013-02-28 23:56:00,
2013-02-28 19:01:00,40.3,37.9,29.56,West,276,0.0,2.0,91,0.00,,,0.03,Wunderground v.1.15,2013-03-01 00:01:00,
2013-02-28 19:11:00,40.2,38.1,29.56,West,276,0.0,2.0,92,0.00,,,0.03,Wunderground v.1.15,2013-03-01 00:11:00,
2013-02-28 19:21:00,40.4,38.3,29.56,West,276,0.0,2.0,92,0.00,,,0.03,Wunderground v.1.15,2013-03-01 00:21:00,
2013-02-28 19:26:00,40.5,38.6,29.56,West,276,0.0,2.0,93,0.00,,,0.03,Wunderground v.1.15,2013-03-01 00:26:00,
2013-02-28 19:31:00,40.4,38.3,29.56,West,276,0.0,2.0,92,0.00,,,0.03,Wunderground v.1.15,2013-03-01 00:31:00,
2013-02-28 19:41:00,40.0,37.9,29.56,West,276,0.0,2.0,92,0.00,,,0.03,Wunderground v.1.15,2013-03-01 00:41:00,
2013-02-28 19:46:00,39.8,37.7,29.56,West,276,0.0,2.0,92,0.00,,,0.03,Wunderground v.1.15,2013-03-01 00:46:00,
2013-02-28 19:51:00,39.9,38.0,29.56,West,276,0.0,2.0,93,0.00,,,0.03,Wunderground v.1.15,2013-03-01 00:51:00,
2013-02-28 20:01:00,40.0,38.1,29.57,West,276,0.0,2.0,93,0.00,,,0.03,Wunderground v.1.15,2013-03-01 01:01:00,
2013-02-28 20:06:00,40.1,38.2,29.56,West,276,0.0,2.0,93,0.00,,,0.03,Wunderground v.1.15,2013-03-01 01:06:00,
2013-02-28 20:11:00,40.0,38.1,29.56,West,276,0.0,2.0,93,0.00,,,0.03,Wunderground v.1.15,2013-03-01 01:11:00,
2013-02-28 20:21:00,40.0,38.1,29.56,West,276,0.0,2.0,93,0.00,,,0.03,Wunderground v.1.15,2013-03-01 01:21:00,
2013-02-28 20:31:00,40.5,38.6,29.57,West,276,2.0,2.0,93,0.00,,,0.03,Wunderground v.1.15,2013-03-01 01:31:00,
2013-02-28 20:41:00,41.0,39.1,29.57,West,277,3.0,5.0,93,0.00,,,0.03,Wunderground v.1.15,2013-03-01 01:41:00,
2013-02-28 20:46:00,41.0,39.1,29.57,West,278,3.0,5.0,93,0.00,,,0.03,Wunderground v.1.15,2013-03-01 01:46:00,
2013-02-28 20:51:00,41.1,39.0,29.57,West,277,4.0,5.0,92,0.00,,,0.03,Wunderground v.1.15,2013-03-01 01:51:00,
2013-02-28 21:01:00,41.1,39.0,29.57,NW,323,4.0,11.0,92,0.00,,,0.03,Wunderground v.1.15,2013-03-01 02:01:00,
2013-02-28 21:06:00,40.9,38.2,29.57,NW,321,7.0,7.0,90,0.00,,,0.03,Wunderground v.1.15,2013-03-01 02:06:00,
2013-02-28 21:11:00,40.4,37.7,29.58,NNW,338,8.0,8.0,90,0.00,,,0.03,Wunderground v.1.15,2013-03-01 02:11:00,
2013-02-28 21:21:00,39.8,37.1,29.58,NNW,332,7.0,8.0,90,0.00,,,0.03,Wunderground v.1.15,2013-03-01 02:21:00,
2013-02-28 21:26:00,39.5,36.8,29.58,NNW,338,7.0,7.0,90,0.00,,,0.03,Wunderground v.1.15,2013-03-01 02:26:00,
2013-02-28 21:36:00,39.4,37.0,29.58,NW,323,5.0,5.0,91,0.00,,,0.03,Wunderground v.1.15,2013-03-01 02:36:00,
2013-02-28 21:41:00,39.4,37.0,29.58,NNW,327,5.0,5.0,91,0.00,,,0.03,Wunderground v.1.15,2013-03-01 02:41:00,
2013-02-28 21:46:00,39.3,37.2,29.58,NW,314,5.0,5.0,92,0.00,,,0.03,Wunderground v.1.15,2013-03-01 02:46:00,
2013-02-28 21:51:00,39.3,37.2,29.58,NW,313,5.0,5.0,92,0.00,,,0.03,Wunderground v.1.15,2013-03-01 02:51:00,
2013-02-28 22:01:00,39.3,37.2,29.58,NW,317,4.0,6.0,92,0.00,,,0.03,Wunderground v.1.15,2013-03-01 03:01:00,
2013-02-28 22:06:00,39.4,37.3,29.57,NW,313,4.0,7.0,92,0.00,,,0.03,Wunderground v.1.15,2013-03-01 03:06:00,
2013-02-28 22:15:00,39.4,37.0,29.58,NW,311,7.0,7.0,91,0.00,,,0.03,Wunderground v.1.15,2013-03-01 03:15:00,
2013-02-28 22:25:00,39.5,37.1,29.58,NW,309,6.0,6.0,91,0.00,,,0.03,Wunderground v.1.15,2013-03-01 03:25:00,
2013-02-28 22:36:00,39.4,37.0,29.58,NW,304,7.0,7.0,91,0.00,,,0.03,Wunderground v.1.15,2013-03-01 03:36:00,
2013-02-28 22:41:00,39.4,37.0,29.58,NW,323,7.0,7.0,91,0.00,,,0.03,Wunderground v.1.15,2013-03-01 03:41:00,
2013-02-28 22:46:00,39.4,37.0,29.58,NW,304,7.0,7.0,91,0.00,,,0.03,Wunderground v.1.15,2013-03-01 03:46:00,
2013-02-28 22:51:00,39.4,37.0,29.58,NNW,329,6.0,8.0,91,0.00,,,0.03,Wunderground v.1.15,2013-03-01 03:51:00,
2013-02-28 23:01:00,39.4,37.0,29.57,NW,309,6.0,7.0,91,0.00,,,0.03,Wunderground v.1.15,2013-03-01 04:01:00,
2013-02-28 23:06:00,39.5,37.1,29.57,NW,305,6.0,6.0,91,0.00,,,0.03,Wunderground v.1.15,2013-03-01 04:06:00,
2013-02-28 23:11:00,39.5,37.1,29.57,WNW,302,5.0,6.0,91,0.00,,,0.03,Wunderground v.1.15,2013-03-01 04:11:00,
2013-02-28 23:21:00,39.5,37.1,29.57,NW,313,7.0,12.0,91,0.00,,,0.03,Wunderground v.1.15,2013-03-01 04:21:00,
2013-02-28 23:26:00,39.5,37.1,29.57,WNW,300,7.0,7.0,91,0.00,,,0.03,Wunderground v.1.15,2013-03-01 04:26:00,
2013-02-28 23:31:00,39.5,37.1,29.57,WNW,296,7.0,7.0,91,0.00,,,0.03,Wunderground v.1.15,2013-03-01 04:31:00,
2013-02-28 23:36:00,39.5,37.1,29.57,NW,317,7.0,7.0,91,0.00,,,0.03,Wunderground v.1.15,2013-03-01 04:36:00,
2013-02-28 23:41:00,39.4,37.0,29.57,NW,321,6.0,7.0,91,0.00,,,0.03,Wunderground v.1.15,2013-03-01 04:41:00,
2013-02-28 23:51:00,39.2,36.8,29.57,NW,304,5.0,6.0,91,0.00,,,0.03,Wunderground v.1.15,2013-03-01 04:51:00,
2013-02-28 23:56:00,39.1,36.7,29.57,NW,308,5.0,12.0,91,0.00,,,0.03,Wunderground v.1.15,2013-03-01 04:56:00,